createdAt,value
2023-02-05T00:00:46.691Z,104523.41
2023-02-05T00:03:13.436Z,104534.19
2023-02-05T00:05:40.358Z,104518.91
2023-02-05T00:08:07.064Z,104500.91
2023-02-05T00:10:33.885Z,104511.69
2023-02-05T00:13:00.853Z,104535.97
2023-02-05T00:15:27.725Z,104547.69
2023-02-05T00:17:54.542Z,104544.97
2023-02-05T00:20:21.372Z,104520.59
2023-02-05T00:22:48.046Z,104498.19
2023-02-05T00:25:14.908Z,104503.69
2023-02-05T00:27:41.784Z,104523.59
2023-02-05T00:30:09.527Z,104533.56
2023-02-05T00:32:37.401Z,104541.69
2023-02-05T00:35:04.735Z,104520.13
2023-02-05T00:37:31.424Z,104504.81
2023-02-05T00:39:58.374Z,104494.06
2023-02-05T00:42:25.223Z,104490.53
2023-02-05T00:44:51.880Z,104513.13
2023-02-05T00:47:18.649Z,104533.94
2023-02-05T00:49:45.504Z,104538.59
2023-02-05T00:52:12.312Z,104525.09
2023-02-05T00:54:39.102Z,104527.03
2023-02-05T00:57:06.051Z,104534.28
2023-02-05T00:59:32.723Z,104561.38
2023-02-05T01:01:59.586Z,104581.25
2023-02-05T01:04:26.406Z,104584.03
2023-02-05T01:06:53.051Z,104582.22
2023-02-05T01:09:19.857Z,104582.31
2023-02-05T01:11:46.618Z,104594.97
2023-02-05T01:14:13.320Z,104617.50
2023-02-05T01:16:39.996Z,104629.28
2023-02-05T01:19:06.862Z,104623.97
2023-02-05T01:21:36.024Z,104624.88
2023-02-05T01:24:03.376Z,104620.41
2023-02-05T01:26:30.139Z,104633.97
2023-02-05T01:28:56.812Z,104651.09
2023-02-05T01:31:25.262Z,104661.91
2023-02-05T01:33:52.144Z,104651.13
2023-02-05T01:36:18.795Z,104657.38
2023-02-05T01:38:45.579Z,104652.91
2023-02-05T01:41:13.564Z,104636.78
2023-02-05T01:43:40.287Z,104623.28
2023-02-05T01:46:26.894Z,104647.59
2023-02-05T01:48:58.257Z,104671.09
2023-02-05T01:51:28.758Z,104669.31
2023-02-05T01:53:55.934Z,104640.53
2023-02-05T01:56:27.223Z,104632.38
2023-02-05T01:59:16.603Z,104645.81
2023-02-05T02:01:44.295Z,104671.00
2023-02-05T02:04:14.800Z,104664.81
2023-02-05T02:06:41.632Z,104663.84
2023-02-05T02:09:08.861Z,104674.53
2023-02-05T02:11:43.185Z,104694.28
2023-02-05T02:14:12.362Z,104696.16
2023-02-05T02:16:40.728Z,104696.09
2023-02-05T02:19:20.468Z,104698.00
2023-02-05T02:22:02.660Z,104707.97
2023-02-05T02:24:59.485Z,104701.69
2023-02-05T02:27:49.683Z,104694.56
2023-02-05T02:30:35.229Z,104701.81
2023-02-05T02:33:06.878Z,104710.88
2023-02-05T02:35:45.098Z,104691.19
2023-02-05T02:38:17.724Z,104660.66
2023-02-05T02:40:54.884Z,104656.22
2023-02-05T02:43:27.671Z,104668.91
2023-02-05T02:46:06.643Z,104670.75
2023-02-05T02:48:38.083Z,104657.34
2023-02-05T02:51:08.744Z,104640.31
2023-02-05T02:53:41.760Z,104641.25
2023-02-05T02:56:11.118Z,104666.44
2023-02-05T02:58:49.570Z,104690.81
2023-02-05T03:01:19.923Z,104675.63
2023-02-05T03:04:03.003Z,104655.78
2023-02-05T03:06:32.101Z,104654.88
2023-02-05T03:09:03.530Z,104671.13
2023-02-05T03:11:30.716Z,104667.66
2023-02-05T03:13:57.796Z,104657.81
2023-02-05T03:16:26.531Z,104646.13
2023-02-05T03:18:54.886Z,104638.03
2023-02-05T03:21:42.160Z,104641.59
2023-02-05T03:24:09.996Z,104652.38
2023-02-05T03:26:38.415Z,104654.22
2023-02-05T03:29:15.051Z,104641.63
2023-02-05T03:31:57.140Z,104620.97
2023-02-05T03:34:38.812Z,104636.22
2023-02-05T03:37:09.790Z,104668.78
2023-02-05T03:39:55.236Z,104680.53
2023-02-05T03:42:34.310Z,104692.19
2023-02-05T03:45:01.200Z,104700.31
2023-02-05T03:47:46.472Z,104712.84
2023-02-05T03:50:25.140Z,104740.53
2023-02-05T03:52:58.577Z,104751.28
2023-02-05T03:55:35.222Z,104742.31
2023-02-05T03:58:18.938Z,104738.78
2023-02-05T04:00:46.344Z,104746.88
2023-02-05T04:03:13.420Z,104760.38
2023-02-05T04:05:40.063Z,104756.84
2023-02-05T04:08:07.074Z,104760.41
2023-02-05T04:10:33.717Z,104766.72
2023-02-05T04:13:00.412Z,104759.66
2023-02-05T04:15:27.341Z,104753.41
2023-02-05T04:17:54.020Z,104744.47
2023-02-05T04:20:20.660Z,104750.78
2023-02-05T04:22:47.596Z,104764.25
2023-02-05T04:25:14.311Z,104773.31
2023-02-05T04:27:41.016Z,104769.75
2023-02-05T04:30:08.356Z,104777.88
2023-02-05T04:32:34.987Z,104789.53
2023-02-05T04:35:01.624Z,104795.84
2023-02-05T04:37:28.506Z,104772.56
2023-02-05T04:39:55.164Z,104766.41
2023-02-05T04:42:21.838Z,104770.94
2023-02-05T04:44:48.757Z,104771.91
2023-02-05T04:47:15.461Z,104762.97
2023-02-05T04:49:42.156Z,104762.09
2023-02-05T04:52:09.124Z,104761.28
2023-02-05T04:54:37.750Z,104765.75
2023-02-05T04:57:04.444Z,104763.09
2023-02-05T04:59:31.907Z,104748.78
2023-02-05T05:01:59.839Z,104746.13
2023-02-05T05:04:26.666Z,104755.97
2023-02-05T05:06:53.601Z,104764.91
2023-02-05T05:09:24.092Z,104759.53
2023-02-05T05:11:55.182Z,104757.78
2023-02-05T05:14:22.692Z,104753.34
2023-02-05T05:16:50.514Z,104752.44
2023-02-05T05:19:17.758Z,104747.97
2023-02-05T05:21:44.669Z,104752.47
2023-02-05T05:24:11.331Z,104760.63
2023-02-05T05:26:43.762Z,104749.00
2023-02-05T05:29:12.115Z,104757.97
2023-02-05T05:31:39.414Z,104765.16
2023-02-05T05:34:06.332Z,104744.50
2023-02-05T05:36:33.130Z,104751.69
2023-02-05T05:39:18.923Z,104764.34
2023-02-05T05:42:04.435Z,104740.19
2023-02-05T05:44:31.334Z,104741.09
2023-02-05T05:46:58.033Z,104761.66
2023-02-05T05:49:24.683Z,104749.97
2023-02-05T05:51:51.654Z,104748.13
2023-02-05T05:54:18.436Z,104749.00
2023-02-05T05:56:45.283Z,104733.81
2023-02-05T05:59:13.370Z,104722.13
2023-02-05T06:01:40.090Z,104721.22
2023-02-05T06:04:07.080Z,104729.38
2023-02-05T06:06:34.238Z,104717.84
2023-02-05T06:09:01.027Z,104704.47
2023-02-05T06:11:27.774Z,104709.03
2023-02-05T06:13:54.564Z,104727.03
2023-02-05T06:16:21.380Z,104717.22
2023-02-05T06:18:48.152Z,104718.09
2023-02-05T06:21:15.033Z,104718.94
2023-02-05T06:23:41.762Z,104705.44
2023-02-05T06:26:08.490Z,104714.47
2023-02-05T06:28:35.348Z,104723.50
2023-02-05T06:31:02.113Z,104715.47
2023-02-05T06:33:29.387Z,104702.03
2023-02-05T06:35:56.196Z,104725.41
2023-02-05T06:38:23.036Z,104728.13
2023-02-05T06:40:49.950Z,104710.25
2023-02-05T06:43:16.661Z,104711.97
2023-02-05T06:45:43.728Z,104727.25
2023-02-05T06:48:10.446Z,104735.28
2023-02-05T06:50:37.233Z,104730.72
2023-02-05T06:53:04.010Z,104726.16
2023-02-05T06:55:30.674Z,104724.31
2023-02-05T06:57:57.561Z,104737.69
2023-02-05T07:00:24.363Z,104722.44
2023-02-05T07:02:51.082Z,104718.84
2023-02-05T07:05:17.923Z,104734.03
2023-02-05T07:07:44.792Z,104749.25
2023-02-05T07:10:11.508Z,104753.75
2023-02-05T07:12:38.418Z,104758.22
2023-02-05T07:15:05.529Z,104764.53
2023-02-05T07:17:32.214Z,104768.09
2023-02-05T07:19:59.492Z,104764.56
2023-02-05T07:22:26.315Z,104761.88
2023-02-05T07:24:52.979Z,104760.16
2023-02-05T07:27:19.840Z,104760.13
2023-02-05T07:29:46.682Z,104765.53
2023-02-05T07:32:13.469Z,104774.47
2023-02-05T07:34:40.313Z,104770.00
2023-02-05T07:37:07.065Z,104769.13
2023-02-05T07:39:33.684Z,104770.91
2023-02-05T07:42:01.348Z,104774.53
2023-02-05T07:44:28.212Z,104779.03
2023-02-05T07:46:54.938Z,104781.75
2023-02-05T07:49:21.850Z,104779.94
2023-02-05T07:51:48.872Z,104775.47
2023-02-05T07:54:15.784Z,104772.78
2023-02-05T07:56:42.974Z,104770.13
2023-02-05T07:59:10.135Z,104772.88
2023-02-05T08:01:36.849Z,104772.00
2023-02-05T08:04:03.814Z,104765.69
2023-02-05T08:06:31.090Z,104771.06
2023-02-05T08:08:57.762Z,104780.00
2023-02-05T08:11:24.674Z,104783.56
2023-02-05T08:13:51.387Z,104770.13
2023-02-05T08:16:18.325Z,104765.69
2023-02-05T08:18:50.070Z,104777.31
2023-02-05T08:21:17.930Z,104767.44
2023-02-05T08:23:44.645Z,104772.81
2023-02-05T08:26:12.335Z,104770.13
2023-02-05T08:28:39.035Z,104752.22
2023-02-05T08:31:18.543Z,104770.13
2023-02-05T08:33:46.886Z,104764.72
2023-02-05T08:36:13.711Z,104760.19
2023-02-05T08:38:40.623Z,104750.31
2023-02-05T08:41:12.787Z,104755.66
2023-02-05T08:43:45.301Z,104756.50
2023-02-05T08:46:14.540Z,104756.44
2023-02-05T08:48:41.372Z,104751.03
2023-02-05T08:51:10.652Z,104756.41
2023-02-05T08:53:37.488Z,104749.22
2023-02-05T08:56:05.434Z,104746.53
2023-02-05T08:58:33.333Z,104757.22
2023-02-05T09:01:08.710Z,104753.59
2023-02-05T09:03:35.972Z,104746.41
2023-02-05T09:06:07.325Z,104751.78
2023-02-05T09:08:34.590Z,104745.50
2023-02-05T09:11:01.528Z,104742.78
2023-02-05T09:13:28.745Z,104740.94
2023-02-05T09:15:55.622Z,104748.06
2023-02-05T09:18:22.608Z,104742.66
2023-02-05T09:20:50.732Z,104737.25
2023-02-05T09:23:18.965Z,104743.44
2023-02-05T09:25:46.083Z,104755.91
2023-02-05T09:28:14.591Z,104756.75
2023-02-05T09:30:44.695Z,104762.94
2023-02-05T09:33:12.405Z,104763.78
2023-02-05T09:35:39.546Z,104774.50
2023-02-05T09:38:06.487Z,104778.94
2023-02-05T09:40:39.703Z,104760.03
2023-02-05T09:43:21.582Z,104762.66
2023-02-05T09:45:59.014Z,104765.16
2023-02-05T09:48:42.895Z,104755.16
2023-02-05T09:51:12.727Z,104752.28
2023-02-05T09:53:46.932Z,104750.31
2023-02-05T09:56:15.812Z,104754.75
2023-02-05T09:58:46.662Z,104751.03
2023-02-05T10:01:39.498Z,104747.31
2023-02-05T10:04:07.841Z,104746.31
2023-02-05T10:06:52.851Z,104744.44
2023-02-05T10:09:52.277Z,104756.84
2023-02-05T10:12:31.024Z,104747.66
2023-02-05T10:15:16.171Z,104738.41
2023-02-05T10:18:13.080Z,104739.91
2023-02-05T10:21:02.964Z,104756.72
2023-02-05T10:23:41.693Z,104743.00
2023-02-05T10:26:12.501Z,104741.97
2023-02-05T10:29:22.801Z,104752.75
2023-02-05T10:32:04.078Z,104752.75
2023-02-05T10:34:46.824Z,104752.75
2023-02-05T10:37:21.975Z,104743.75
2023-02-05T10:39:49.817Z,104746.41
2023-02-05T10:42:32.121Z,104752.63
2023-02-05T10:45:09.623Z,104744.31
2023-02-05T10:47:36.467Z,104748.47
2023-02-05T10:50:52.527Z,104739.13
2023-02-05T10:53:23.893Z,104730.66
2023-02-05T10:55:50.922Z,104743.00
2023-02-05T10:58:44.961Z,104730.25
2023-02-05T11:01:16.682Z,104733.69
2023-02-05T11:04:06.470Z,104735.34
2023-02-05T11:06:42.210Z,104729.78
2023-02-05T11:09:24.464Z,104723.38
2023-02-05T11:12:02.708Z,104725.94
2023-02-05T11:14:38.760Z,104724.94
2023-02-05T11:17:20.714Z,104709.50
2023-02-05T11:19:56.256Z,104719.09
2023-02-05T11:22:29.023Z,104709.84
2023-02-05T11:25:06.633Z,104704.94
2023-02-05T11:27:35.142Z,104705.56
2023-02-05T11:30:28.655Z,104706.31
2023-02-05T11:33:18.736Z,104708.81
2023-02-05T11:35:55.503Z,104708.56
2023-02-05T11:38:40.389Z,104704.03
2023-02-05T11:41:08.942Z,104722.03
2023-02-05T11:43:50.947Z,104722.03
2023-02-05T11:46:21.033Z,104709.28
2023-02-05T11:49:02.709Z,104701.91
2023-02-05T11:51:47.157Z,104715.28
2023-02-05T11:54:29.814Z,104708.75
2023-02-05T11:57:03.117Z,104699.56
2023-02-05T11:59:29.771Z,104707.47
2023-02-05T12:02:28.794Z,104698.66
2023-02-05T12:05:01.170Z,104687.66
2023-02-05T12:07:34.629Z,104688.91
2023-02-05T12:10:01.361Z,104699.50
2023-02-05T12:12:44.252Z,104683.91
2023-02-05T12:15:19.851Z,104676.09
2023-02-05T12:17:59.631Z,104664.50
2023-02-05T12:20:34.594Z,104668.22
2023-02-05T12:23:07.755Z,104670.75
2023-02-05T12:25:35.815Z,104665.53
2023-02-05T12:28:30.456Z,104676.25
2023-02-05T12:31:04.922Z,104661.47
2023-02-05T12:33:56.189Z,104661.94
2023-02-05T12:36:31.792Z,104654.66
2023-02-05T12:39:16.954Z,104660.22
2023-02-05T12:42:44.401Z,104650.25
2023-02-05T12:45:53.775Z,104647.06
2023-02-05T12:48:40.357Z,104640.97
2023-02-05T12:51:19.620Z,104631.25
2023-02-05T12:54:05.290Z,104633.03
2023-02-05T12:56:56.745Z,104632.97
2023-02-05T12:59:49.688Z,104628.47
2023-02-05T13:02:23.153Z,104622.97
2023-02-05T13:05:02.418Z,104618.38
2023-02-05T13:07:47.099Z,104607.41
2023-02-05T13:10:49.184Z,104617.19
2023-02-05T13:13:22.734Z,104608.97
2023-02-05T13:16:00.400Z,104617.09
2023-02-05T13:18:35.566Z,104608.06
2023-02-05T13:21:26.304Z,104622.56
2023-02-05T13:24:16.484Z,104611.69
2023-02-05T13:27:04.917Z,104620.56
2023-02-05T13:29:51.715Z,104599.91
2023-02-05T13:32:21.838Z,104613.13
2023-02-05T13:34:48.599Z,104607.75
2023-02-05T13:37:53.021Z,104604.16
2023-02-05T13:40:44.197Z,104596.66
2023-02-05T13:43:38.042Z,104591.81
2023-02-05T13:46:32.196Z,104577.41
2023-02-05T13:49:14.144Z,104586.38
2023-02-05T13:51:52.872Z,104567.16
2023-02-05T13:54:51.672Z,104569.91
2023-02-05T13:57:37.262Z,104571.25
2023-02-05T14:00:09.049Z,104566.59
2023-02-05T14:02:45.403Z,104570.19
2023-02-05T14:05:14.185Z,104556.44
2023-02-05T14:07:50.807Z,104551.13
2023-02-05T14:10:28.226Z,104548.66
2023-02-05T14:13:16.416Z,104544.44
2023-02-05T14:15:44.222Z,104536.38
2023-02-05T14:18:32.410Z,104537.72
2023-02-05T14:20:59.574Z,104532.44
2023-02-05T14:23:48.418Z,104535.53
2023-02-05T14:26:15.438Z,104533.72
2023-02-05T14:28:50.604Z,104530.09
2023-02-05T14:31:54.437Z,104524.44
2023-02-05T14:34:43.643Z,104516.28
2023-02-05T14:37:41.577Z,104499.13
2023-02-05T14:40:30.796Z,104490.56
2023-02-05T14:43:13.236Z,104494.69
2023-02-05T14:45:46.368Z,104492.13
2023-02-05T14:48:24.991Z,104480.13
2023-02-05T14:51:21.199Z,104468.88
2023-02-05T14:53:58.172Z,104466.56
2023-02-05T14:56:34.539Z,104462.88
2023-02-05T14:59:08.115Z,104463.59
2023-02-05T15:01:37.897Z,104469.75
2023-02-05T15:04:05.739Z,104470.41
2023-02-05T15:06:40.806Z,104471.28
2023-02-05T15:09:17.935Z,104467.28
2023-02-05T15:12:22.445Z,104466.19
2023-02-05T15:14:54.848Z,104466.19
2023-02-05T15:17:32.497Z,104460.34
2023-02-05T15:20:14.548Z,104459.88
2023-02-05T15:22:51.475Z,104447.78
2023-02-05T15:25:36.962Z,104456.09
2023-02-05T15:28:22.200Z,104456.56
2023-02-05T15:30:58.005Z,104455.63
2023-02-05T15:33:33.297Z,104454.09
2023-02-05T15:36:02.432Z,104456.81
2023-02-05T15:38:44.439Z,104455.13
2023-02-05T15:41:15.274Z,104450.19
2023-02-05T15:43:58.249Z,104460.88
2023-02-05T15:46:25.267Z,104457.84
2023-02-05T15:48:52.077Z,104460.25
2023-02-05T15:51:34.276Z,104456.34
2023-02-05T15:54:04.310Z,104460.50
2023-02-05T15:56:39.655Z,104460.00
2023-02-05T15:59:17.403Z,104479.44
2023-02-05T16:01:48.593Z,104477.94
2023-02-05T16:04:31.210Z,104476.44
2023-02-05T16:06:58.409Z,104470.44
2023-02-05T16:09:27.735Z,104474.38
2023-02-05T16:11:55.699Z,104469.31
2023-02-05T16:14:25.148Z,104466.75
2023-02-05T16:17:12.982Z,104453.22
2023-02-05T16:19:50.260Z,104451.47
2023-02-05T16:22:25.957Z,104452.34
2023-02-05T16:24:58.481Z,104452.28
2023-02-05T16:27:42.680Z,104444.97
2023-02-05T16:30:18.246Z,104443.34
2023-02-05T16:32:45.453Z,104448.00
2023-02-05T16:35:26.888Z,104444.66
2023-02-05T16:37:53.708Z,104438.56
2023-02-05T16:40:49.149Z,104432.44
2023-02-05T16:43:37.444Z,104434.53
2023-02-05T16:46:07.147Z,104434.88
2023-02-05T16:48:37.458Z,104437.81
2023-02-05T16:51:05.641Z,104426.41
2023-02-05T16:53:37.191Z,104424.03
2023-02-05T16:56:24.123Z,104419.84
2023-02-05T16:58:54.347Z,104416.59
2023-02-05T17:01:31.364Z,104418.59
2023-02-05T17:03:58.362Z,104425.22
2023-02-05T17:06:34.248Z,104414.59
2023-02-05T17:09:01.563Z,104422.88
2023-02-05T17:11:46.483Z,104426.69
2023-02-05T17:14:35.852Z,104420.56
2023-02-05T17:17:15.693Z,104426.22
2023-02-05T17:20:01.420Z,104433.56
2023-02-05T17:22:28.648Z,104438.25
2023-02-05T17:24:55.429Z,104432.13
2023-02-05T17:27:30.516Z,104435.81
2023-02-05T17:29:58.834Z,104437.72
2023-02-05T17:32:26.859Z,104440.50
2023-02-05T17:34:53.852Z,104433.41
2023-02-05T17:37:20.585Z,104441.63
2023-02-05T17:39:47.290Z,104435.53
2023-02-05T17:42:23.651Z,104428.56
2023-02-05T17:44:51.719Z,104434.19
2023-02-05T17:47:18.804Z,104433.47
2023-02-05T17:49:45.901Z,104422.00
2023-02-05T17:52:12.763Z,104427.56
2023-02-05T17:54:40.060Z,104430.28
2023-02-05T17:57:19.836Z,104430.50
2023-02-05T17:59:47.499Z,104428.78
2023-02-05T18:02:15.143Z,104444.38
2023-02-05T18:04:42.457Z,104442.75
2023-02-05T18:07:27.404Z,104436.78
2023-02-05T18:09:54.460Z,104437.16
2023-02-05T18:12:21.725Z,104435.72
2023-02-05T18:14:48.419Z,104445.00
2023-02-05T18:17:15.305Z,104445.25
2023-02-05T18:19:41.946Z,104437.34
2023-02-05T18:22:08.639Z,104437.66
2023-02-05T18:24:37.262Z,104432.44
2023-02-05T18:27:07.609Z,104431.66
2023-02-05T18:29:38.789Z,104426.34
2023-02-05T18:32:06.404Z,104418.38
2023-02-05T18:34:33.426Z,104417.47
2023-02-05T18:37:00.529Z,104419.19
2023-02-05T18:39:29.966Z,104415.34
2023-02-05T18:41:57.627Z,104412.59
2023-02-05T18:44:25.351Z,104411.59
2023-02-05T18:46:52.312Z,104414.22
2023-02-05T18:49:19.123Z,104411.50
2023-02-05T18:51:46.217Z,104412.53
2023-02-05T18:54:12.927Z,104409.75
2023-02-05T18:56:39.667Z,104406.09
2023-02-05T18:59:08.758Z,104404.41
2023-02-05T19:01:38.422Z,104409.13
2023-02-05T19:04:12.665Z,104404.84
2023-02-05T19:06:44.470Z,104408.59
2023-02-05T19:09:11.575Z,104403.31
2023-02-05T19:11:41.603Z,104395.38
2023-02-05T19:14:11.642Z,104390.13
2023-02-05T19:16:39.578Z,104393.91
2023-02-05T19:19:07.213Z,104395.00
2023-02-05T19:21:34.679Z,104396.06
2023-02-05T19:24:05.646Z,104406.19
2023-02-05T19:26:34.120Z,104407.06
2023-02-05T19:29:04.823Z,104414.41
2023-02-05T19:31:34.140Z,104411.84
2023-02-05T19:34:01.652Z,104421.94
2023-02-05T19:36:29.352Z,104428.31
2023-02-05T19:38:56.472Z,104427.38
2023-02-05T19:41:26.531Z,104431.03
2023-02-05T19:43:58.306Z,104428.44
2023-02-05T19:46:28.277Z,104433.88
2023-02-05T19:48:56.439Z,104432.16
2023-02-05T19:52:25.938Z,104428.66
2023-02-05T19:58:55.106Z,104432.34
2023-02-05T20:01:26.333Z,104423.34
2023-02-05T20:03:58.849Z,104414.34
2023-02-05T20:06:28.119Z,104410.72
2023-02-05T20:08:55.001Z,104401.78
2023-02-05T20:11:21.890Z,104408.09
2023-02-05T20:13:49.438Z,104409.91
2023-02-05T20:16:22.026Z,104399.34
2023-02-05T20:18:57.470Z,104386.06
2023-02-05T20:21:24.733Z,104390.66
2023-02-05T20:23:51.471Z,104393.41
2023-02-05T20:26:22.423Z,104397.25
2023-02-05T20:29:11.505Z,104392.97
2023-02-05T20:31:44.713Z,104393.03
2023-02-05T20:34:22.698Z,104389.63
2023-02-05T20:36:55.895Z,104398.53
2023-02-05T20:39:24.282Z,104390.44
2023-02-05T20:41:52.129Z,104387.84
2023-02-05T20:44:19.539Z,104383.41
2023-02-05T20:46:46.635Z,104374.47
2023-02-05T20:49:13.948Z,104378.22
2023-02-05T20:51:40.972Z,104386.34
2023-02-05T20:54:08.171Z,104378.31
2023-02-05T20:56:35.459Z,104381.91
2023-02-05T20:59:05.225Z,104373.06
2023-02-05T21:01:33.601Z,104376.66
2023-02-05T21:04:02.017Z,104381.03
2023-02-05T21:06:33.056Z,104374.75
2023-02-05T21:09:01.350Z,104366.78
2023-02-05T21:11:31.762Z,104365.00
2023-02-05T21:14:03.674Z,104362.28
2023-02-05T21:16:35.921Z,104361.50
2023-02-05T21:19:41.898Z,104362.50
2023-02-05T21:22:08.922Z,104360.75
2023-02-05T21:24:40.330Z,104359.84
2023-02-05T21:27:30.230Z,104356.38
2023-02-05T21:29:57.244Z,104353.78
2023-02-05T21:32:24.087Z,104356.38
2023-02-05T21:35:33.327Z,104348.25
2023-02-05T21:38:59.927Z,104352.91
2023-02-05T21:46:18.169Z,104368.03
2023-02-05T21:49:28.171Z,104367.16
2023-02-05T21:52:53.369Z,104361.72
2023-02-05T21:55:53.736Z,104363.50
2023-02-05T21:58:21.059Z,104360.91
2023-02-05T22:00:51.806Z,104367.25
2023-02-05T22:04:20.696Z,104371.69
2023-02-05T22:07:34.102Z,104361.03
2023-02-05T22:10:01.015Z,104363.69
2023-02-05T22:12:32.929Z,104365.50
2023-02-05T22:15:03.592Z,104364.69
2023-02-05T22:17:34.795Z,104357.59
2023-02-05T22:23:55.956Z,104358.69
2023-02-05T22:26:41.597Z,104352.53
2023-02-05T22:29:12.704Z,104356.16
2023-02-05T22:32:24.365Z,104349.84
2023-02-05T22:35:34.125Z,104351.56
2023-02-05T22:42:45.065Z,104352.78
2023-02-05T22:46:11.769Z,104348.25
2023-02-05T22:49:38.523Z,104344.63
2023-02-05T22:53:05.087Z,104349.03
2023-02-05T23:00:11.267Z,104354.50
2023-02-05T23:03:23.162Z,104364.47
2023-02-05T23:05:52.208Z,104358.25
2023-02-05T23:09:18.815Z,104347.47
2023-02-05T23:15:33.677Z,104352.03
2023-02-05T23:18:45.761Z,104340.44
2023-02-05T23:21:16.731Z,104354.81
2023-02-05T23:23:43.883Z,104353.91
2023-02-05T23:26:13.642Z,104353.94
2023-02-05T23:28:40.501Z,104345.03
2023-02-05T23:31:07.743Z,104345.06
2023-02-05T23:33:35.709Z,104341.53
2023-02-05T23:36:05.134Z,104350.50
2023-02-05T23:38:32.195Z,104337.13
2023-02-05T23:40:59.065Z,104352.44
2023-02-05T23:43:26.271Z,104341.72
2023-02-05T23:45:54.323Z,104335.38
2023-02-05T23:48:21.273Z,104335.31
2023-02-05T23:50:52.596Z,104335.19
2023-02-05T23:53:23.220Z,104334.22
2023-02-05T23:55:51.515Z,104337.75
2023-02-05T23:58:21.300Z,104334.94
